sensor_id;sensor_type;location;lat;lon;timestamp;P1;durP1;ratioP1;P2;durP2;ratioP2
25913;SDS011;13718;50.922;5.346;2023-11-19T00:00:49;16.60;;;8.80;;
25913;SDS011;13718;50.922;5.346;2023-11-19T00:03:16;14.52;;;8.23;;
25913;SDS011;13718;50.922;5.346;2023-11-19T00:05:42;16.88;;;8.05;;
25913;SDS011;13718;50.922;5.346;2023-11-19T00:08:09;15.63;;;7.70;;
25913;SDS011;13718;50.922;5.346;2023-11-19T00:10:35;14.77;;;7.28;;
25913;SDS011;13718;50.922;5.346;2023-11-19T00:13:00;11.88;;;6.28;;
25913;SDS011;13718;50.922;5.346;2023-11-19T00:15:27;15.93;;;6.35;;
25913;SDS011;13718;50.922;5.346;2023-11-19T00:17:53;12.77;;;6.00;;
25913;SDS011;13718;50.922;5.346;2023-11-19T00:20:19;18.05;;;6.13;;
25913;SDS011;13718;50.922;5.346;2023-11-19T00:22:47;13.40;;;7.35;;
25913;SDS011;13718;50.922;5.346;2023-11-19T00:25:16;15.30;;;8.55;;
25913;SDS011;13718;50.922;5.346;2023-11-19T00:27:42;17.10;;;8.18;;
25913;SDS011;13718;50.922;5.346;2023-11-19T00:30:09;16.00;;;8.40;;
25913;SDS011;13718;50.922;5.346;2023-11-19T00:32:36;18.70;;;8.43;;
25913;SDS011;13718;50.922;5.346;2023-11-19T00:35:03;19.65;;;9.55;;
25913;SDS011;13718;50.922;5.346;2023-11-19T00:37:29;18.42;;;9.65;;
25913;SDS011;13718;50.922;5.346;2023-11-19T00:39:55;21.02;;;9.90;;
25913;SDS011;13718;50.922;5.346;2023-11-19T00:42:21;21.27;;;10.15;;
25913;SDS011;13718;50.922;5.346;2023-11-19T00:44:49;23.90;;;10.55;;
25913;SDS011;13718;50.922;5.346;2023-11-19T00:47:14;26.92;;;11.25;;
25913;SDS011;13718;50.922;5.346;2023-11-19T00:49:40;26.10;;;12.00;;
25913;SDS011;13718;50.922;5.346;2023-11-19T00:52:05;25.40;;;10.57;;
25913;SDS011;13718;50.922;5.346;2023-11-19T00:54:31;23.95;;;10.70;;
25913;SDS011;13718;50.922;5.346;2023-11-19T00:56:57;25.00;;;10.43;;
25913;SDS011;13718;50.922;5.346;2023-11-19T00:59:23;28.75;;;11.25;;
25913;SDS011;13718;50.922;5.346;2023-11-19T01:01:48;22.83;;;10.63;;
25913;SDS011;13718;50.922;5.346;2023-11-19T01:04:16;28.65;;;11.05;;
25913;SDS011;13718;50.922;5.346;2023-11-19T01:06:41;21.85;;;9.45;;
25913;SDS011;13718;50.922;5.346;2023-11-19T01:09:07;30.83;;;11.55;;
25913;SDS011;13718;50.922;5.346;2023-11-19T01:11:33;27.58;;;10.35;;
25913;SDS011;13718;50.922;5.346;2023-11-19T01:14:00;29.17;;;9.63;;
25913;SDS011;13718;50.922;5.346;2023-11-19T01:16:25;25.60;;;9.68;;
25913;SDS011;13718;50.922;5.346;2023-11-19T01:18:51;22.98;;;9.10;;
25913;SDS011;13718;50.922;5.346;2023-11-19T01:21:17;28.25;;;8.68;;
25913;SDS011;13718;50.922;5.346;2023-11-19T01:23:43;29.20;;;8.90;;
25913;SDS011;13718;50.922;5.346;2023-11-19T01:26:09;27.08;;;8.07;;
25913;SDS011;13718;50.922;5.346;2023-11-19T01:28:35;28.77;;;8.38;;
25913;SDS011;13718;50.922;5.346;2023-11-19T01:31:01;23.08;;;7.43;;
25913;SDS011;13718;50.922;5.346;2023-11-19T01:33:28;26.30;;;7.93;;
25913;SDS011;13718;50.922;5.346;2023-11-19T01:35:54;34.65;;;8.20;;
25913;SDS011;13718;50.922;5.346;2023-11-19T01:38:19;27.85;;;7.22;;
25913;SDS011;13718;50.922;5.346;2023-11-19T01:40:45;25.88;;;7.53;;
25913;SDS011;13718;50.922;5.346;2023-11-19T01:43:10;32.92;;;7.55;;
25913;SDS011;13718;50.922;5.346;2023-11-19T01:45:36;27.80;;;7.68;;
25913;SDS011;13718;50.922;5.346;2023-11-19T01:48:03;23.48;;;7.30;;
25913;SDS011;13718;50.922;5.346;2023-11-19T01:50:29;29.15;;;7.38;;
25913;SDS011;13718;50.922;5.346;2023-11-19T01:52:56;29.60;;;7.75;;
25913;SDS011;13718;50.922;5.346;2023-11-19T01:55:23;25.75;;;6.78;;
25913;SDS011;13718;50.922;5.346;2023-11-19T01:57:50;32.50;;;7.72;;
25913;SDS011;13718;50.922;5.346;2023-11-19T02:00:18;24.70;;;5.93;;
25913;SDS011;13718;50.922;5.346;2023-11-19T02:02:44;30.75;;;6.38;;
25913;SDS011;13718;50.922;5.346;2023-11-19T02:05:12;34.95;;;6.20;;
25913;SDS011;13718;50.922;5.346;2023-11-19T02:07:41;36.28;;;5.78;;
25913;SDS011;13718;50.922;5.346;2023-11-19T02:10:07;34.30;;;5.50;;
25913;SDS011;13718;50.922;5.346;2023-11-19T02:12:42;44.80;;;5.40;;
25913;SDS011;13718;50.922;5.346;2023-11-19T02:15:08;36.88;;;5.38;;
25913;SDS011;13718;50.922;5.346;2023-11-19T02:17:34;39.83;;;6.13;;
25913;SDS011;13718;50.922;5.346;2023-11-19T02:20:02;32.20;;;5.57;;
25913;SDS011;13718;50.922;5.346;2023-11-19T02:22:31;36.85;;;6.18;;
25913;SDS011;13718;50.922;5.346;2023-11-19T02:24:59;33.17;;;6.35;;
25913;SDS011;13718;50.922;5.346;2023-11-19T02:30:09;34.88;;;6.25;;
25913;SDS011;13718;50.922;5.346;2023-11-19T02:32:36;42.15;;;6.28;;
25913;SDS011;13718;50.922;5.346;2023-11-19T02:35:05;29.67;;;6.20;;
25913;SDS011;13718;50.922;5.346;2023-11-19T02:37:32;39.65;;;6.05;;
25913;SDS011;13718;50.922;5.346;2023-11-19T02:39:59;34.05;;;6.43;;
25913;SDS011;13718;50.922;5.346;2023-11-19T02:42:34;33.97;;;5.70;;
25913;SDS011;13718;50.922;5.346;2023-11-19T02:45:00;34.65;;;5.90;;
25913;SDS011;13718;50.922;5.346;2023-11-19T02:47:27;38.00;;;5.72;;
25913;SDS011;13718;50.922;5.346;2023-11-19T02:49:55;36.05;;;6.03;;
25913;SDS011;13718;50.922;5.346;2023-11-19T02:52:21;35.95;;;6.25;;
25913;SDS011;13718;50.922;5.346;2023-11-19T02:54:46;31.83;;;7.03;;
25913;SDS011;13718;50.922;5.346;2023-11-19T02:57:12;43.85;;;5.97;;
25913;SDS011;13718;50.922;5.346;2023-11-19T02:59:38;43.97;;;6.28;;
25913;SDS011;13718;50.922;5.346;2023-11-19T03:02:06;41.42;;;6.18;;
25913;SDS011;13718;50.922;5.346;2023-11-19T03:04:36;40.38;;;6.18;;
25913;SDS011;13718;50.922;5.346;2023-11-19T03:07:04;39.08;;;6.15;;
25913;SDS011;13718;50.922;5.346;2023-11-19T03:09:32;49.70;;;6.38;;
25913;SDS011;13718;50.922;5.346;2023-11-19T03:11:58;47.67;;;6.28;;
25913;SDS011;13718;50.922;5.346;2023-11-19T03:14:24;41.88;;;5.55;;
25913;SDS011;13718;50.922;5.346;2023-11-19T03:16:49;37.72;;;6.55;;
25913;SDS011;13718;50.922;5.346;2023-11-19T03:19:15;45.60;;;6.20;;
25913;SDS011;13718;50.922;5.346;2023-11-19T03:21:41;45.42;;;6.43;;
25913;SDS011;13718;50.922;5.346;2023-11-19T03:24:06;55.15;;;6.88;;
25913;SDS011;13718;50.922;5.346;2023-11-19T03:26:33;46.55;;;6.07;;
25913;SDS011;13718;50.922;5.346;2023-11-19T03:28:59;42.42;;;6.13;;
25913;SDS011;13718;50.922;5.346;2023-11-19T03:31:24;39.20;;;5.47;;
25913;SDS011;13718;50.922;5.346;2023-11-19T03:33:50;49.03;;;6.55;;
25913;SDS011;13718;50.922;5.346;2023-11-19T03:36:16;50.03;;;6.03;;
25913;SDS011;13718;50.922;5.346;2023-11-19T03:38:42;37.42;;;5.75;;
25913;SDS011;13718;50.922;5.346;2023-11-19T03:41:11;52.05;;;6.13;;
25913;SDS011;13718;50.922;5.346;2023-11-19T03:43:41;51.75;;;6.18;;
25913;SDS011;13718;50.922;5.346;2023-11-19T03:46:17;50.83;;;6.53;;
25913;SDS011;13718;50.922;5.346;2023-11-19T03:48:46;38.15;;;5.75;;
25913;SDS011;13718;50.922;5.346;2023-11-19T03:51:13;40.50;;;5.25;;
25913;SDS011;13718;50.922;5.346;2023-11-19T03:53:42;50.67;;;6.55;;
25913;SDS011;13718;50.922;5.346;2023-11-19T03:56:09;40.97;;;5.03;;
25913;SDS011;13718;50.922;5.346;2023-11-19T03:58:35;44.38;;;5.82;;
25913;SDS011;13718;50.922;5.346;2023-11-19T04:01:01;43.33;;;5.70;;
25913;SDS011;13718;50.922;5.346;2023-11-19T04:03:27;48.03;;;6.05;;
25913;SDS011;13718;50.922;5.346;2023-11-19T04:05:53;43.97;;;5.20;;
25913;SDS011;13718;50.922;5.346;2023-11-19T04:08:18;40.42;;;5.82;;
25913;SDS011;13718;50.922;5.346;2023-11-19T04:10:44;41.70;;;5.40;;
25913;SDS011;13718;50.922;5.346;2023-11-19T04:13:10;31.95;;;5.63;;
25913;SDS011;13718;50.922;5.346;2023-11-19T04:15:36;33.60;;;5.43;;
25913;SDS011;13718;50.922;5.346;2023-11-19T04:18:01;48.72;;;6.75;;
25913;SDS011;13718;50.922;5.346;2023-11-19T04:20:27;42.58;;;5.55;;
25913;SDS011;13718;50.922;5.346;2023-11-19T04:22:52;45.03;;;5.57;;
25913;SDS011;13718;50.922;5.346;2023-11-19T04:25:18;35.97;;;5.45;;
25913;SDS011;13718;50.922;5.346;2023-11-19T04:27:44;46.80;;;5.40;;
25913;SDS011;13718;50.922;5.346;2023-11-19T04:30:10;35.53;;;4.97;;
25913;SDS011;13718;50.922;5.346;2023-11-19T04:32:36;39.03;;;5.70;;
25913;SDS011;13718;50.922;5.346;2023-11-19T04:35:02;42.47;;;6.75;;
25913;SDS011;13718;50.922;5.346;2023-11-19T04:37:28;39.40;;;5.55;;
25913;SDS011;13718;50.922;5.346;2023-11-19T04:39:54;46.47;;;5.65;;
25913;SDS011;13718;50.922;5.346;2023-11-19T04:42:21;49.55;;;6.28;;
25913;SDS011;13718;50.922;5.346;2023-11-19T04:44:47;41.80;;;5.20;;
25913;SDS011;13718;50.922;5.346;2023-11-19T04:47:13;48.90;;;5.93;;
25913;SDS011;13718;50.922;5.346;2023-11-19T04:49:42;48.00;;;5.90;;
25913;SDS011;13718;50.922;5.346;2023-11-19T04:52:10;42.28;;;5.13;;
25913;SDS011;13718;50.922;5.346;2023-11-19T04:54:40;54.10;;;5.43;;
25913;SDS011;13718;50.922;5.346;2023-11-19T04:57:07;54.08;;;6.25;;
25913;SDS011;13718;50.922;5.346;2023-11-19T04:59:34;47.33;;;5.53;;
25913;SDS011;13718;50.922;5.346;2023-11-19T05:02:00;50.65;;;5.18;;
25913;SDS011;13718;50.922;5.346;2023-11-19T05:04:25;42.05;;;4.90;;
25913;SDS011;13718;50.922;5.346;2023-11-19T05:06:51;46.08;;;6.13;;
25913;SDS011;13718;50.922;5.346;2023-11-19T05:09:17;52.55;;;5.80;;
25913;SDS011;13718;50.922;5.346;2023-11-19T05:11:43;57.78;;;6.78;;
25913;SDS011;13718;50.922;5.346;2023-11-19T05:14:08;48.53;;;5.63;;
25913;SDS011;13718;50.922;5.346;2023-11-19T05:16:34;44.63;;;5.72;;
25913;SDS011;13718;50.922;5.346;2023-11-19T05:19:00;45.78;;;5.55;;
25913;SDS011;13718;50.922;5.346;2023-11-19T05:21:25;53.15;;;7.03;;
25913;SDS011;13718;50.922;5.346;2023-11-19T05:23:51;47.75;;;6.30;;
25913;SDS011;13718;50.922;5.346;2023-11-19T05:26:20;49.67;;;5.30;;
25913;SDS011;13718;50.922;5.346;2023-11-19T05:28:47;39.88;;;5.15;;
25913;SDS011;13718;50.922;5.346;2023-11-19T05:31:12;36.53;;;5.13;;
25913;SDS011;13718;50.922;5.346;2023-11-19T05:33:38;46.53;;;5.20;;
25913;SDS011;13718;50.922;5.346;2023-11-19T05:36:04;56.80;;;6.70;;
25913;SDS011;13718;50.922;5.346;2023-11-19T05:38:30;51.80;;;5.63;;
25913;SDS011;13718;50.922;5.346;2023-11-19T05:40:56;51.78;;;5.80;;
25913;SDS011;13718;50.922;5.346;2023-11-19T05:43:22;48.13;;;5.50;;
25913;SDS011;13718;50.922;5.346;2023-11-19T05:45:47;47.88;;;6.07;;
25913;SDS011;13718;50.922;5.346;2023-11-19T05:48:13;58.05;;;6.68;;
25913;SDS011;13718;50.922;5.346;2023-11-19T05:50:39;53.38;;;5.22;;
25913;SDS011;13718;50.922;5.346;2023-11-19T05:53:04;50.05;;;6.28;;
25913;SDS011;13718;50.922;5.346;2023-11-19T05:55:33;57.30;;;6.80;;
25913;SDS011;13718;50.922;5.346;2023-11-19T05:57:59;50.47;;;5.72;;
25913;SDS011;13718;50.922;5.346;2023-11-19T06:00:25;50.00;;;6.47;;
25913;SDS011;13718;50.922;5.346;2023-11-19T06:02:51;49.13;;;6.20;;
25913;SDS011;13718;50.922;5.346;2023-11-19T06:05:17;63.83;;;6.40;;
25913;SDS011;13718;50.922;5.346;2023-11-19T06:07:43;55.97;;;7.20;;
25913;SDS011;13718;50.922;5.346;2023-11-19T06:10:09;46.65;;;5.72;;
25913;SDS011;13718;50.922;5.346;2023-11-19T06:12:35;53.75;;;5.78;;
25913;SDS011;13718;50.922;5.346;2023-11-19T06:15:05;43.40;;;5.68;;
25913;SDS011;13718;50.922;5.346;2023-11-19T06:17:33;51.40;;;6.88;;
25913;SDS011;13718;50.922;5.346;2023-11-19T06:19:59;59.75;;;5.95;;
25913;SDS011;13718;50.922;5.346;2023-11-19T06:22:24;50.95;;;6.20;;
25913;SDS011;13718;50.922;5.346;2023-11-19T06:24:50;60.42;;;6.60;;
25913;SDS011;13718;50.922;5.346;2023-11-19T06:27:15;49.90;;;5.75;;
25913;SDS011;13718;50.922;5.346;2023-11-19T06:29:41;69.25;;;6.63;;
25913;SDS011;13718;50.922;5.346;2023-11-19T06:32:07;43.03;;;3.92;;
25913;SDS011;13718;50.922;5.346;2023-11-19T06:34:33;40.75;;;4.43;;
25913;SDS011;13718;50.922;5.346;2023-11-19T06:36:59;38.15;;;4.85;;
25913;SDS011;13718;50.922;5.346;2023-11-19T06:39:24;53.47;;;5.53;;
25913;SDS011;13718;50.922;5.346;2023-11-19T06:41:50;43.75;;;4.45;;
25913;SDS011;13718;50.922;5.346;2023-11-19T06:44:16;49.28;;;5.32;;
25913;SDS011;13718;50.922;5.346;2023-11-19T06:46:42;50.15;;;4.68;;
25913;SDS011;13718;50.922;5.346;2023-11-19T06:49:08;41.30;;;3.28;;
25913;SDS011;13718;50.922;5.346;2023-11-19T06:51:34;40.05;;;4.10;;
25913;SDS011;13718;50.922;5.346;2023-11-19T06:53:59;37.80;;;4.00;;
25913;SDS011;13718;50.922;5.346;2023-11-19T06:56:27;55.10;;;5.10;;
25913;SDS011;13718;50.922;5.346;2023-11-19T06:58:52;40.80;;;4.50;;
25913;SDS011;13718;50.922;5.346;2023-11-19T07:01:18;53.30;;;3.83;;
25913;SDS011;13718;50.922;5.346;2023-11-19T07:03:48;56.83;;;4.15;;
25913;SDS011;13718;50.922;5.346;2023-11-19T07:06:13;45.63;;;4.03;;
25913;SDS011;13718;50.922;5.346;2023-11-19T07:08:42;46.38;;;4.00;;
25913;SDS011;13718;50.922;5.346;2023-11-19T07:13:38;46.95;;;4.38;;
25913;SDS011;13718;50.922;5.346;2023-11-19T07:16:04;40.80;;;4.15;;
25913;SDS011;13718;50.922;5.346;2023-11-19T07:18:30;38.97;;;5.03;;
25913;SDS011;13718;50.922;5.346;2023-11-19T07:20:56;48.92;;;4.35;;
25913;SDS011;13718;50.922;5.346;2023-11-19T07:23:22;53.22;;;5.18;;
25913;SDS011;13718;50.922;5.346;2023-11-19T07:25:48;37.95;;;4.93;;
25913;SDS011;13718;50.922;5.346;2023-11-19T07:28:15;44.97;;;5.00;;
25913;SDS011;13718;50.922;5.346;2023-11-19T07:30:41;25.65;;;4.78;;
25913;SDS011;13718;50.922;5.346;2023-11-19T07:33:07;44.35;;;4.45;;
25913;SDS011;13718;50.922;5.346;2023-11-19T07:35:33;43.70;;;3.97;;
25913;SDS011;13718;50.922;5.346;2023-11-19T07:37:59;38.70;;;4.60;;
25913;SDS011;13718;50.922;5.346;2023-11-19T07:40:24;44.00;;;3.72;;
25913;SDS011;13718;50.922;5.346;2023-11-19T07:42:50;43.40;;;4.28;;
25913;SDS011;13718;50.922;5.346;2023-11-19T07:45:16;51.83;;;5.00;;
25913;SDS011;13718;50.922;5.346;2023-11-19T07:47:42;48.45;;;4.75;;
25913;SDS011;13718;50.922;5.346;2023-11-19T07:50:10;56.15;;;4.60;;
25913;SDS011;13718;50.922;5.346;2023-11-19T07:52:35;36.17;;;4.00;;
25913;SDS011;13718;50.922;5.346;2023-11-19T07:55:02;52.33;;;4.53;;
25913;SDS011;13718;50.922;5.346;2023-11-19T07:57:27;31.27;;;4.57;;
25913;SDS011;13718;50.922;5.346;2023-11-19T07:59:56;37.78;;;3.55;;
25913;SDS011;13718;50.922;5.346;2023-11-19T08:02:22;55.15;;;4.95;;
25913;SDS011;13718;50.922;5.346;2023-11-19T08:04:48;41.10;;;3.88;;
25913;SDS011;13718;50.922;5.346;2023-11-19T08:07:17;46.38;;;5.30;;
25913;SDS011;13718;50.922;5.346;2023-11-19T08:09:43;47.50;;;4.57;;
25913;SDS011;13718;50.922;5.346;2023-11-19T08:12:09;44.30;;;3.78;;
25913;SDS011;13718;50.922;5.346;2023-11-19T08:14:35;45.72;;;3.88;;
25913;SDS011;13718;50.922;5.346;2023-11-19T08:17:02;61.47;;;4.63;;
25913;SDS011;13718;50.922;5.346;2023-11-19T08:19:27;40.75;;;3.70;;
25913;SDS011;13718;50.922;5.346;2023-11-19T08:21:53;52.05;;;4.47;;
25913;SDS011;13718;50.922;5.346;2023-11-19T08:24:19;37.97;;;4.07;;
25913;SDS011;13718;50.922;5.346;2023-11-19T08:26:44;45.45;;;3.60;;
25913;SDS011;13718;50.922;5.346;2023-11-19T08:29:10;41.20;;;4.03;;
25913;SDS011;13718;50.922;5.346;2023-11-19T08:31:35;36.80;;;3.70;;
25913;SDS011;13718;50.922;5.346;2023-11-19T08:34:01;34.58;;;4.00;;
25913;SDS011;13718;50.922;5.346;2023-11-19T08:36:26;39.65;;;3.75;;
25913;SDS011;13718;50.922;5.346;2023-11-19T08:38:53;46.55;;;4.13;;
25913;SDS011;13718;50.922;5.346;2023-11-19T08:41:18;46.58;;;4.28;;
25913;SDS011;13718;50.922;5.346;2023-11-19T08:43:44;47.28;;;4.43;;
25913;SDS011;13718;50.922;5.346;2023-11-19T08:46:11;29.52;;;3.83;;
25913;SDS011;13718;50.922;5.346;2023-11-19T08:48:37;45.67;;;3.85;;
25913;SDS011;13718;50.922;5.346;2023-11-19T08:51:02;35.55;;;3.35;;
25913;SDS011;13718;50.922;5.346;2023-11-19T08:53:29;44.92;;;4.00;;
25913;SDS011;13718;50.922;5.346;2023-11-19T08:55:55;45.30;;;3.88;;
25913;SDS011;13718;50.922;5.346;2023-11-19T08:58:20;49.22;;;3.88;;
25913;SDS011;13718;50.922;5.346;2023-11-19T09:00:46;40.58;;;4.10;;
25913;SDS011;13718;50.922;5.346;2023-11-19T09:03:12;58.28;;;4.00;;
25913;SDS011;13718;50.922;5.346;2023-11-19T09:05:37;42.60;;;3.55;;
25913;SDS011;13718;50.922;5.346;2023-11-19T09:08:03;36.03;;;4.07;;
25913;SDS011;13718;50.922;5.346;2023-11-19T09:10:29;29.95;;;3.75;;
25913;SDS011;13718;50.922;5.346;2023-11-19T09:12:55;31.83;;;3.83;;
25913;SDS011;13718;50.922;5.346;2023-11-19T09:15:20;43.58;;;3.35;;
25913;SDS011;13718;50.922;5.346;2023-11-19T09:17:46;39.80;;;3.58;;
25913;SDS011;13718;50.922;5.346;2023-11-19T09:20:11;35.30;;;3.78;;
25913;SDS011;13718;50.922;5.346;2023-11-19T09:22:40;36.72;;;4.45;;
25913;SDS011;13718;50.922;5.346;2023-11-19T09:25:06;48.42;;;4.95;;
25913;SDS011;13718;50.922;5.346;2023-11-19T09:27:32;40.83;;;3.72;;
25913;SDS011;13718;50.922;5.346;2023-11-19T09:29:58;49.25;;;3.92;;
25913;SDS011;13718;50.922;5.346;2023-11-19T09:32:24;40.58;;;4.85;;
25913;SDS011;13718;50.922;5.346;2023-11-19T09:34:50;39.65;;;4.28;;
25913;SDS011;13718;50.922;5.346;2023-11-19T09:37:16;33.20;;;3.38;;
25913;SDS011;13718;50.922;5.346;2023-11-19T09:39:41;36.28;;;4.30;;
25913;SDS011;13718;50.922;5.346;2023-11-19T09:42:10;38.00;;;4.28;;
25913;SDS011;13718;50.922;5.346;2023-11-19T09:44:36;36.85;;;4.30;;
25913;SDS011;13718;50.922;5.346;2023-11-19T09:47:04;31.15;;;3.08;;
25913;SDS011;13718;50.922;5.346;2023-11-19T09:49:30;33.92;;;4.45;;
25913;SDS011;13718;50.922;5.346;2023-11-19T09:51:56;51.35;;;4.05;;
25913;SDS011;13718;50.922;5.346;2023-11-19T09:54:22;32.88;;;4.70;;
25913;SDS011;13718;50.922;5.346;2023-11-19T09:56:47;39.47;;;3.75;;
25913;SDS011;13718;50.922;5.346;2023-11-19T09:59:13;45.40;;;3.80;;
25913;SDS011;13718;50.922;5.346;2023-11-19T10:01:39;38.67;;;3.63;;
25913;SDS011;13718;50.922;5.346;2023-11-19T10:04:05;38.55;;;3.67;;
25913;SDS011;13718;50.922;5.346;2023-11-19T10:06:32;46.65;;;4.25;;
25913;SDS011;13718;50.922;5.346;2023-11-19T10:08:57;40.30;;;4.40;;
25913;SDS011;13718;50.922;5.346;2023-11-19T10:11:24;51.42;;;4.45;;
25913;SDS011;13718;50.922;5.346;2023-11-19T10:13:51;34.13;;;4.68;;
25913;SDS011;13718;50.922;5.346;2023-11-19T10:16:18;41.55;;;4.45;;
25913;SDS011;13718;50.922;5.346;2023-11-19T10:18:47;41.13;;;3.85;;
25913;SDS011;13718;50.922;5.346;2023-11-19T10:21:15;39.33;;;3.40;;
25913;SDS011;13718;50.922;5.346;2023-11-19T10:26:16;39.90;;;3.45;;
25913;SDS011;13718;50.922;5.346;2023-11-19T10:28:42;30.48;;;2.80;;
25913;SDS011;13718;50.922;5.346;2023-11-19T10:31:10;33.55;;;3.65;;
25913;SDS011;13718;50.922;5.346;2023-11-19T10:33:40;32.53;;;3.38;;
25913;SDS011;13718;50.922;5.346;2023-11-19T10:36:06;24.60;;;3.55;;
25913;SDS011;13718;50.922;5.346;2023-11-19T10:38:32;32.03;;;3.95;;
25913;SDS011;13718;50.922;5.346;2023-11-19T10:40:58;22.25;;;2.67;;
25913;SDS011;13718;50.922;5.346;2023-11-19T10:43:24;30.83;;;3.40;;
25913;SDS011;13718;50.922;5.346;2023-11-19T10:45:50;19.42;;;2.92;;
25913;SDS011;13718;50.922;5.346;2023-11-19T10:48:17;30.92;;;4.07;;
25913;SDS011;13718;50.922;5.346;2023-11-19T10:50:43;27.80;;;3.22;;
25913;SDS011;13718;50.922;5.346;2023-11-19T10:53:11;24.95;;;3.10;;
25913;SDS011;13718;50.922;5.346;2023-11-19T10:55:41;27.27;;;3.08;;
25913;SDS011;13718;50.922;5.346;2023-11-19T10:58:07;27.10;;;3.47;;
25913;SDS011;13718;50.922;5.346;2023-11-19T11:03:24;23.80;;;2.63;;
25913;SDS011;13718;50.922;5.346;2023-11-19T11:05:52;23.08;;;3.10;;
25913;SDS011;13718;50.922;5.346;2023-11-19T11:08:19;27.50;;;3.28;;
25913;SDS011;13718;50.922;5.346;2023-11-19T11:10:48;33.67;;;3.63;;
25913;SDS011;13718;50.922;5.346;2023-11-19T11:13:18;32.85;;;4.10;;
25913;SDS011;13718;50.922;5.346;2023-11-19T11:15:44;25.23;;;3.30;;
25913;SDS011;13718;50.922;5.346;2023-11-19T11:18:12;20.05;;;2.90;;
25913;SDS011;13718;50.922;5.346;2023-11-19T11:20:38;36.80;;;4.53;;
25913;SDS011;13718;50.922;5.346;2023-11-19T11:23:11;27.52;;;3.20;;
25913;SDS011;13718;50.922;5.346;2023-11-19T11:28:34;24.80;;;3.38;;
25913;SDS011;13718;50.922;5.346;2023-11-19T11:39:49;21.30;;;2.08;;
25913;SDS011;13718;50.922;5.346;2023-11-19T11:44:59;21.10;;;2.70;;
25913;SDS011;13718;50.922;5.346;2023-11-19T11:50:11;22.80;;;3.05;;
25913;SDS011;13718;50.922;5.346;2023-11-19T11:55:24;18.45;;;2.03;;
25913;SDS011;13718;50.922;5.346;2023-11-19T11:57:50;18.77;;;2.08;;
25913;SDS011;13718;50.922;5.346;2023-11-19T12:00:49;18.88;;;2.83;;
25913;SDS011;13718;50.922;5.346;2023-11-19T12:03:08;26.00;;;2.50;;
25913;SDS011;13718;50.922;5.346;2023-11-19T12:05:43;20.25;;;2.22;;
25913;SDS011;13718;50.922;5.346;2023-11-19T12:08:10;18.20;;;2.38;;
25913;SDS011;13718;50.922;5.346;2023-11-19T12:10:46;20.98;;;2.20;;
25913;SDS011;13718;50.922;5.346;2023-11-19T12:13:14;24.73;;;2.50;;
25913;SDS011;13718;50.922;5.346;2023-11-19T12:18:29;27.40;;;3.38;;
25913;SDS011;13718;50.922;5.346;2023-11-19T12:21:01;17.33;;;2.80;;
25913;SDS011;13718;50.922;5.346;2023-11-19T12:23:31;16.30;;;2.50;;
25913;SDS011;13718;50.922;5.346;2023-11-19T12:25:57;24.20;;;2.75;;
25913;SDS011;13718;50.922;5.346;2023-11-19T12:28:23;29.25;;;3.55;;
25913;SDS011;13718;50.922;5.346;2023-11-19T12:30:51;31.02;;;2.70;;
25913;SDS011;13718;50.922;5.346;2023-11-19T12:33:18;27.10;;;3.20;;
25913;SDS011;13718;50.922;5.346;2023-11-19T12:35:45;22.60;;;2.90;;
25913;SDS011;13718;50.922;5.346;2023-11-19T12:38:18;17.90;;;2.47;;
25913;SDS011;13718;50.922;5.346;2023-11-19T12:40:45;25.88;;;3.22;;
25913;SDS011;13718;50.922;5.346;2023-11-19T12:43:13;30.80;;;2.90;;
25913;SDS011;13718;50.922;5.346;2023-11-19T12:45:46;20.60;;;2.78;;
25913;SDS011;13718;50.922;5.346;2023-11-19T12:48:12;18.83;;;2.97;;
25913;SDS011;13718;50.922;5.346;2023-11-19T12:50:54;32.22;;;3.50;;
25913;SDS011;13718;50.922;5.346;2023-11-19T12:53:21;18.88;;;2.97;;
25913;SDS011;13718;50.922;5.346;2023-11-19T12:55:47;21.67;;;2.78;;
25913;SDS011;13718;50.922;5.346;2023-11-19T12:58:32;19.77;;;2.60;;
25913;SDS011;13718;50.922;5.346;2023-11-19T13:01:03;21.92;;;2.55;;
25913;SDS011;13718;50.922;5.346;2023-11-19T13:03:33;13.43;;;2.22;;
25913;SDS011;13718;50.922;5.346;2023-11-19T13:11:15;25.08;;;2.67;;
25913;SDS011;13718;50.922;5.346;2023-11-19T13:14:01;15.10;;;2.33;;
25913;SDS011;13718;50.922;5.346;2023-11-19T13:16:33;18.45;;;2.92;;
25913;SDS011;13718;50.922;5.346;2023-11-19T13:19:01;15.35;;;2.35;;
25913;SDS011;13718;50.922;5.346;2023-11-19T13:21:27;22.13;;;2.17;;
25913;SDS011;13718;50.922;5.346;2023-11-19T13:23:54;20.70;;;2.30;;
25913;SDS011;13718;50.922;5.346;2023-11-19T13:26:20;19.83;;;2.58;;
25913;SDS011;13718;50.922;5.346;2023-11-19T13:28:46;19.02;;;2.60;;
25913;SDS011;13718;50.922;5.346;2023-11-19T13:31:11;23.45;;;2.28;;
25913;SDS011;13718;50.922;5.346;2023-11-19T13:33:37;19.85;;;2.50;;
25913;SDS011;13718;50.922;5.346;2023-11-19T13:36:03;22.25;;;2.55;;
25913;SDS011;13718;50.922;5.346;2023-11-19T13:38:36;22.25;;;2.50;;
25913;SDS011;13718;50.922;5.346;2023-11-19T13:41:04;18.60;;;1.92;;
25913;SDS011;13718;50.922;5.346;2023-11-19T13:43:31;21.27;;;2.70;;
25913;SDS011;13718;50.922;5.346;2023-11-19T13:45:57;14.13;;;2.20;;
25913;SDS011;13718;50.922;5.346;2023-11-19T13:48:25;21.45;;;2.65;;
25913;SDS011;13718;50.922;5.346;2023-11-19T13:50:54;22.70;;;2.92;;
25913;SDS011;13718;50.922;5.346;2023-11-19T13:53:20;25.85;;;3.03;;
25913;SDS011;13718;50.922;5.346;2023-11-19T13:55:46;19.50;;;2.30;;
25913;SDS011;13718;50.922;5.346;2023-11-19T13:58:12;23.88;;;3.35;;
25913;SDS011;13718;50.922;5.346;2023-11-19T14:00:38;20.15;;;2.95;;
25913;SDS011;13718;50.922;5.346;2023-11-19T14:03:05;23.67;;;2.65;;
25913;SDS011;13718;50.922;5.346;2023-11-19T14:05:31;17.60;;;2.80;;
25913;SDS011;13718;50.922;5.346;2023-11-19T14:07:57;26.85;;;2.58;;
25913;SDS011;13718;50.922;5.346;2023-11-19T14:10:22;25.60;;;3.03;;
25913;SDS011;13718;50.922;5.346;2023-11-19T14:12:48;23.08;;;2.95;;
25913;SDS011;13718;50.922;5.346;2023-11-19T14:15:15;23.00;;;2.95;;
25913;SDS011;13718;50.922;5.346;2023-11-19T14:17:42;25.73;;;3.63;;
25913;SDS011;13718;50.922;5.346;2023-11-19T14:20:08;16.00;;;2.75;;
25913;SDS011;13718;50.922;5.346;2023-11-19T14:22:44;17.02;;;2.28;;
25913;SDS011;13718;50.922;5.346;2023-11-19T14:25:13;24.48;;;2.60;;
25913;SDS011;13718;50.922;5.346;2023-11-19T14:27:40;18.70;;;2.92;;
25913;SDS011;13718;50.922;5.346;2023-11-19T14:30:08;21.65;;;2.67;;
25913;SDS011;13718;50.922;5.346;2023-11-19T14:32:39;18.15;;;2.38;;
25913;SDS011;13718;50.922;5.346;2023-11-19T14:35:05;20.15;;;2.50;;
25913;SDS011;13718;50.922;5.346;2023-11-19T14:37:32;20.77;;;2.40;;
25913;SDS011;13718;50.922;5.346;2023-11-19T14:39:58;24.17;;;3.08;;
25913;SDS011;13718;50.922;5.346;2023-11-19T14:42:24;22.13;;;2.78;;
25913;SDS011;13718;50.922;5.346;2023-11-19T14:44:50;20.48;;;2.97;;
25913;SDS011;13718;50.922;5.346;2023-11-19T14:47:20;19.98;;;3.28;;
25913;SDS011;13718;50.922;5.346;2023-11-19T14:49:46;27.15;;;3.28;;
25913;SDS011;13718;50.922;5.346;2023-11-19T14:52:11;28.92;;;3.40;;
25913;SDS011;13718;50.922;5.346;2023-11-19T14:54:38;19.55;;;2.58;;
25913;SDS011;13718;50.922;5.346;2023-11-19T14:57:04;25.20;;;2.95;;
25913;SDS011;13718;50.922;5.346;2023-11-19T14:59:31;24.83;;;3.05;;
25913;SDS011;13718;50.922;5.346;2023-11-19T15:01:57;18.83;;;2.80;;
25913;SDS011;13718;50.922;5.346;2023-11-19T15:04:24;24.27;;;3.22;;
25913;SDS011;13718;50.922;5.346;2023-11-19T15:06:50;23.30;;;3.15;;
25913;SDS011;13718;50.922;5.346;2023-11-19T15:09:16;26.83;;;3.00;;